createdAt,value
2023-04-20T00:01:29.950Z,8.60
2023-04-20T00:03:58.185Z,8.73
2023-04-20T00:06:29.711Z,8.87
2023-04-20T00:08:57.951Z,8.50
2023-04-20T00:11:26.633Z,9.00
2023-04-20T00:13:54.730Z,9.33
2023-04-20T00:16:22.817Z,8.80
2023-04-20T00:18:51.591Z,9.87
2023-04-20T00:21:21.904Z,8.37
2023-04-20T00:23:51.842Z,8.80
2023-04-20T00:26:20.876Z,10.63
2023-04-20T00:28:48.916Z,9.63
2023-04-20T00:31:17.034Z,10.37
2023-04-20T00:33:45.106Z,9.17
2023-04-20T00:36:13.153Z,9.17
2023-04-20T00:38:41.458Z,9.83
2023-04-20T00:41:10.960Z,10.53
2023-04-20T00:43:39.081Z,9.83
2023-04-20T00:46:07.256Z,10.70
2023-04-20T00:48:35.329Z,9.70
2023-04-20T00:51:03.734Z,10.93
2023-04-20T00:53:31.785Z,11.43
2023-04-20T00:55:59.920Z,10.40
2023-04-20T00:58:29.716Z,9.33
2023-04-20T01:00:57.797Z,9.67
2023-04-20T01:03:25.978Z,10.00
2023-04-20T01:05:54.222Z,10.73
2023-04-20T01:08:26.285Z,9.43
2023-04-20T01:10:54.432Z,10.90
2023-04-20T01:13:23.083Z,10.70
2023-04-20T01:15:52.634Z,11.03
2023-04-20T01:18:20.732Z,10.77
2023-04-20T01:20:48.770Z,10.60
2023-04-20T01:23:18.164Z,10.40
2023-04-20T01:25:46.461Z,10.37
2023-04-20T01:28:14.560Z,10.00
2023-04-20T01:30:42.622Z,9.73
2023-04-20T01:33:10.797Z,10.30
2023-04-20T01:35:38.850Z,10.67
2023-04-20T01:38:06.918Z,10.30
2023-04-20T01:40:36.494Z,9.30
2023-04-20T01:43:04.533Z,10.33
2023-04-20T01:45:32.607Z,8.97
2023-04-20T01:48:02.197Z,10.80
2023-04-20T01:50:30.358Z,10.23
2023-04-20T01:52:58.437Z,9.83
2023-04-20T01:55:26.483Z,9.63
2023-04-20T01:57:55.927Z,7.77
2023-04-20T02:00:24.502Z,8.60
2023-04-20T02:02:52.807Z,9.57
2023-04-20T02:05:21.049Z,10.50
2023-04-20T02:07:49.094Z,7.80
2023-04-20T02:10:17.155Z,7.73
2023-04-20T02:12:45.572Z,9.20
2023-04-20T02:15:15.056Z,8.90
2023-04-20T02:17:43.782Z,8.90
2023-04-20T02:20:12.850Z,9.30
2023-04-20T02:22:40.900Z,9.40
2023-04-20T02:25:10.477Z,8.37
2023-04-20T02:27:38.557Z,8.97
2023-04-20T02:30:08.411Z,9.17
2023-04-20T02:32:37.919Z,9.70
2023-04-20T02:35:06.516Z,10.10
2023-04-20T02:37:34.858Z,10.07
2023-04-20T02:40:02.907Z,11.70
2023-04-20T02:42:30.987Z,10.27
2023-04-20T02:44:59.117Z,8.83
2023-04-20T02:47:27.167Z,8.93
2023-04-20T02:49:56.943Z,10.37
2023-04-20T02:52:26.294Z,10.20
2023-04-20T02:54:54.343Z,10.43
2023-04-20T02:57:22.424Z,10.60
2023-04-20T02:59:50.501Z,11.00
2023-04-20T03:02:18.693Z,11.50
2023-04-20T03:04:47.109Z,11.97
2023-04-20T03:07:16.971Z,11.10
2023-04-20T03:09:45.074Z,11.20
2023-04-20T03:12:13.145Z,10.10
2023-04-20T03:14:41.182Z,11.37
2023-04-20T03:17:09.218Z,10.80
2023-04-20T03:19:37.301Z,11.00
2023-04-20T03:22:05.523Z,10.63
2023-04-20T03:24:35.300Z,10.27
2023-04-20T03:27:03.337Z,11.37
2023-04-20T03:29:31.416Z,10.10
2023-04-20T03:31:59.523Z,10.63
2023-04-20T03:34:27.802Z,10.43
2023-04-20T03:36:55.895Z,10.40
2023-04-20T03:39:23.970Z,9.97
2023-04-20T03:41:53.511Z,11.77
2023-04-20T03:44:21.570Z,10.30
2023-04-20T03:46:49.615Z,11.10
2023-04-20T03:49:17.903Z,10.50
2023-04-20T03:51:46.129Z,10.93
2023-04-20T03:54:14.214Z,11.20
2023-04-20T03:56:42.332Z,11.63
2023-04-20T03:59:11.754Z,11.47
2023-04-20T04:01:39.823Z,12.23
2023-04-20T04:04:08.034Z,11.77
2023-04-20T04:06:36.297Z,11.70
2023-04-20T04:09:04.470Z,11.97
2023-04-20T04:11:32.530Z,11.90
2023-04-20T04:14:00.667Z,13.10
2023-04-20T04:16:30.147Z,11.83
2023-04-20T04:18:58.311Z,11.90
2023-04-20T04:21:28.367Z,11.67
2023-04-20T04:23:56.549Z,11.20
2023-04-20T04:26:24.971Z,11.13
2023-04-20T04:28:53.112Z,11.70
2023-04-20T04:31:21.568Z,11.83
2023-04-20T04:33:51.316Z,12.60
2023-04-20T04:36:19.842Z,12.23
2023-04-20T04:38:48.039Z,11.80
2023-04-20T04:41:16.183Z,13.00
2023-04-20T04:43:44.267Z,12.17
2023-04-20T04:46:13.302Z,12.33
2023-04-20T04:48:43.284Z,10.40
2023-04-20T04:51:12.741Z,11.67
2023-04-20T04:53:45.070Z,11.93
2023-04-20T04:56:13.391Z,11.00
2023-04-20T04:58:41.460Z,9.70
2023-04-20T05:01:09.580Z,11.53
2023-04-20T05:03:37.737Z,11.30
2023-04-20T05:06:06.186Z,11.50
2023-04-20T05:08:35.849Z,12.40
2023-04-20T05:11:03.885Z,11.27
2023-04-20T05:13:31.975Z,11.30
2023-04-20T05:16:00.051Z,12.03
2023-04-20T05:18:28.139Z,12.33
2023-04-20T05:20:56.272Z,12.07
2023-04-20T05:23:24.604Z,11.50
2023-04-20T05:25:54.021Z,11.57
2023-04-20T05:28:22.267Z,12.13
2023-04-20T05:30:50.339Z,12.90
2023-04-20T05:33:18.404Z,10.83
2023-04-20T05:35:46.491Z,12.73
2023-04-20T05:38:14.648Z,13.73
2023-04-20T05:40:42.746Z,16.47
2023-04-20T05:43:12.189Z,14.63
2023-04-20T05:45:40.396Z,13.60
2023-04-20T05:48:08.550Z,15.60
2023-04-20T05:50:36.593Z,13.73
2023-04-20T05:53:04.673Z,14.07
2023-04-20T05:55:33.390Z,15.80
2023-04-20T05:58:01.870Z,14.83
2023-04-20T06:00:31.578Z,16.10
2023-04-20T06:03:12.975Z,16.60
2023-04-20T06:05:55.693Z,15.80
2023-04-20T06:08:23.797Z,15.47
2023-04-20T06:10:55.518Z,12.03
2023-04-20T06:13:23.629Z,14.50
2023-04-20T06:15:54.154Z,15.60
2023-04-20T06:18:22.418Z,15.40
2023-04-20T06:20:50.782Z,14.60
2023-04-20T06:23:18.822Z,13.90
2023-04-20T06:25:47.061Z,14.63
2023-04-20T06:28:15.167Z,14.10
2023-04-20T06:30:43.226Z,14.30
2023-04-20T06:33:16.933Z,14.90
2023-04-20T06:35:45.077Z,15.83
2023-04-20T06:38:13.410Z,15.43
2023-04-20T06:40:41.582Z,13.53
2023-04-20T06:43:09.672Z,14.80
2023-04-20T06:45:37.772Z,14.70
2023-04-20T06:48:08.398Z,13.57
2023-04-20T06:50:43.859Z,16.00
2023-04-20T06:53:11.950Z,15.63
2023-04-20T06:55:39.972Z,14.73
2023-04-20T06:58:08.092Z,16.10
2023-04-20T07:00:36.481Z,16.87
2023-04-20T07:03:04.659Z,16.73
2023-04-20T07:05:32.784Z,15.87
2023-04-20T07:08:02.264Z,15.87
2023-04-20T07:10:30.292Z,16.13
2023-04-20T07:12:58.376Z,15.80
2023-04-20T07:15:26.609Z,17.33
2023-04-20T07:17:54.769Z,15.90
2023-04-20T07:20:23.084Z,18.80
2023-04-20T07:22:51.167Z,18.73
2023-04-20T07:25:20.687Z,17.67
2023-04-20T07:27:48.779Z,17.93
2023-04-20T07:30:16.941Z,20.00
2023-04-20T07:32:45.075Z,21.33
2023-04-20T07:35:13.264Z,21.83
2023-04-20T07:37:41.388Z,22.40
2023-04-20T07:40:10.698Z,23.17
2023-04-20T07:42:40.295Z,23.70
2023-04-20T07:45:09.366Z,21.90
2023-04-20T07:47:37.899Z,21.67
2023-04-20T07:50:07.473Z,22.10
2023-04-20T07:52:35.837Z,21.77
2023-04-20T07:55:04.036Z,23.17
2023-04-20T07:57:32.136Z,20.97
2023-04-20T08:00:01.578Z,21.60
2023-04-20T08:02:29.814Z,21.93
2023-04-20T08:04:58.088Z,20.50
2023-04-20T08:07:26.268Z,21.47
2023-04-20T08:09:54.379Z,20.47
2023-04-20T08:12:22.430Z,19.73
2023-04-20T08:14:50.469Z,21.47
2023-04-20T08:17:19.927Z,18.50
2023-04-20T08:19:48.358Z,19.47
2023-04-20T08:22:16.522Z,20.17
2023-04-20T08:24:44.656Z,19.67
2023-04-20T08:27:12.732Z,20.20
2023-04-20T08:29:41.079Z,21.47
2023-04-20T08:32:09.772Z,18.13
2023-04-20T08:34:39.637Z,16.40
2023-04-20T08:37:07.773Z,18.10
2023-04-20T08:39:36.473Z,16.87
2023-04-20T08:42:04.795Z,16.53
2023-04-20T08:44:33.075Z,16.40
2023-04-20T08:47:01.526Z,18.33
2023-04-20T08:49:31.283Z,16.70
2023-04-20T08:52:01.020Z,17.67
2023-04-20T08:54:29.070Z,16.17
2023-04-20T08:56:57.134Z,15.90
2023-04-20T08:59:25.285Z,14.80
2023-04-20T09:01:53.359Z,15.53
2023-04-20T09:04:23.720Z,15.40
2023-04-20T09:06:53.591Z,15.67
2023-04-20T09:09:25.267Z,15.97
2023-04-20T09:12:02.483Z,15.83
2023-04-20T09:14:31.721Z,15.17
2023-04-20T09:17:02.190Z,15.90
2023-04-20T09:19:31.119Z,14.43
2023-04-20T09:22:01.278Z,14.07
2023-04-20T09:24:34.353Z,14.10
2023-04-20T09:27:04.647Z,15.30
2023-04-20T09:29:32.692Z,14.20
2023-04-20T09:32:00.923Z,15.60
2023-04-20T09:34:29.185Z,14.43
2023-04-20T09:36:57.656Z,14.60
2023-04-20T09:39:26.968Z,13.00
2023-04-20T09:42:05.155Z,14.33
2023-04-20T09:44:34.524Z,14.50
2023-04-20T09:47:04.199Z,13.57
2023-04-20T09:49:33.037Z,13.60
2023-04-20T09:52:04.368Z,12.97
2023-04-20T09:54:32.568Z,12.43
2023-04-20T09:57:03.404Z,13.70
2023-04-20T09:59:35.085Z,13.47
2023-04-20T10:02:03.297Z,11.83
2023-04-20T10:04:31.447Z,12.57
2023-04-20T10:07:03.598Z,11.93
2023-04-20T10:09:33.299Z,11.97
2023-04-20T10:12:09.585Z,11.20
2023-04-20T10:14:37.704Z,11.30
2023-04-20T10:17:08.623Z,10.50
2023-04-20T10:19:41.588Z,11.07
2023-04-20T10:22:11.014Z,10.60
2023-04-20T10:24:39.566Z,10.83
2023-04-20T10:27:19.406Z,9.80
2023-04-20T10:29:47.849Z,11.03
2023-04-20T10:32:26.388Z,9.43
2023-04-20T10:35:05.084Z,9.63
2023-04-20T10:37:33.409Z,9.83
2023-04-20T10:40:01.966Z,9.40
2023-04-20T10:42:42.337Z,10.17
2023-04-20T10:45:11.874Z,9.50
2023-04-20T10:47:41.511Z,10.07
2023-04-20T10:50:11.406Z,9.03
2023-04-20T10:52:41.067Z,8.10
2023-04-20T10:55:20.011Z,8.07
2023-04-20T10:57:49.756Z,8.17
2023-04-20T11:00:20.407Z,8.37
2023-04-20T11:02:53.071Z,8.80
2023-04-20T11:05:23.038Z,7.77
2023-04-20T11:07:55.249Z,7.80
2023-04-20T11:10:25.462Z,7.03
2023-04-20T11:12:55.663Z,8.10
2023-04-20T11:15:33.151Z,7.70
2023-04-20T11:18:08.343Z,7.57
2023-04-20T11:20:37.091Z,6.93
2023-04-20T11:23:06.057Z,8.10
2023-04-20T11:25:34.178Z,8.63
2023-04-20T11:28:10.408Z,7.43
2023-04-20T11:30:42.527Z,8.43
2023-04-20T11:33:11.003Z,8.60
2023-04-20T11:35:40.271Z,7.40
2023-04-20T11:38:08.590Z,8.43
2023-04-20T11:40:37.152Z,8.03
2023-04-20T11:43:05.594Z,8.33
2023-04-20T11:45:36.745Z,7.07
2023-04-20T11:48:06.386Z,8.03
2023-04-20T11:50:34.511Z,7.30
2023-04-20T11:53:02.840Z,8.00
2023-04-20T11:55:30.941Z,5.97
2023-04-20T11:57:59.027Z,7.40
2023-04-20T12:00:27.108Z,6.50
2023-04-20T12:02:56.897Z,6.67
2023-04-20T12:05:25.116Z,6.10
2023-04-20T12:07:53.202Z,6.10
2023-04-20T12:10:21.451Z,6.40
2023-04-20T12:12:49.997Z,5.70
2023-04-20T12:15:18.264Z,5.60
2023-04-20T12:17:46.609Z,7.07
2023-04-20T12:20:16.243Z,6.67
2023-04-20T12:22:44.318Z,5.87
2023-04-20T12:25:12.574Z,6.17
2023-04-20T12:27:40.826Z,6.40
2023-04-20T12:30:10.084Z,6.30
2023-04-20T12:32:38.168Z,5.57
2023-04-20T12:35:08.297Z,5.67
2023-04-20T12:37:37.927Z,6.80
2023-04-20T12:40:07.168Z,6.43
2023-04-20T12:42:35.369Z,6.50
2023-04-20T12:45:03.615Z,7.60
2023-04-20T12:47:31.847Z,6.47
2023-04-20T12:49:59.881Z,6.10
2023-04-20T12:52:29.068Z,8.47
2023-04-20T12:54:58.521Z,8.63
2023-04-20T12:57:27.081Z,9.33
2023-04-20T12:59:56.389Z,8.50
2023-04-20T13:02:24.654Z,8.60
2023-04-20T13:04:53.585Z,7.03
2023-04-20T13:07:21.647Z,6.67
2023-04-20T13:09:49.742Z,6.10
2023-04-20T13:12:19.239Z,5.10
2023-04-20T13:14:47.297Z,3.83
2023-04-20T13:17:15.469Z,4.07
2023-04-20T13:19:43.528Z,4.63
2023-04-20T13:22:14.054Z,3.60
2023-04-20T13:24:44.897Z,4.17
2023-04-20T13:27:14.183Z,4.80
2023-04-20T13:29:43.663Z,4.33
2023-04-20T13:32:11.892Z,2.93
2023-04-20T13:34:40.083Z,3.77
2023-04-20T13:37:08.152Z,3.30
2023-04-20T13:39:36.528Z,3.73
2023-04-20T13:42:04.709Z,3.53
2023-04-20T13:44:32.747Z,3.50
2023-04-20T13:47:02.689Z,3.90
2023-04-20T13:49:30.811Z,4.23
2023-04-20T13:51:58.858Z,4.50
2023-04-20T13:54:26.974Z,4.57
2023-04-20T13:56:55.018Z,4.60
2023-04-20T13:59:23.237Z,5.27
2023-04-20T14:01:51.377Z,4.50
2023-04-20T14:04:21.283Z,4.87
2023-04-20T14:06:49.650Z,5.80
2023-04-20T14:09:18.058Z,5.40
2023-04-20T14:11:46.864Z,6.00
2023-04-20T14:14:15.030Z,7.57
2023-04-20T14:16:46.901Z,5.20
2023-04-20T14:19:15.143Z,5.77
2023-04-20T14:21:46.656Z,6.33
2023-04-20T14:24:15.607Z,7.13
2023-04-20T14:26:44.593Z,6.40
2023-04-20T14:29:12.898Z,7.50
2023-04-20T14:31:41.534Z,6.80
2023-04-20T14:34:09.984Z,7.20
2023-04-20T14:36:38.015Z,6.83
2023-04-20T14:39:07.625Z,7.83
2023-04-20T14:41:36.128Z,7.80
2023-04-20T14:44:05.213Z,7.60
2023-04-20T14:46:33.341Z,8.00
2023-04-20T14:49:01.444Z,7.47
2023-04-20T14:51:29.653Z,8.27
2023-04-20T14:53:57.728Z,8.50
2023-04-20T14:56:27.317Z,7.77
2023-04-20T14:58:57.243Z,9.37
2023-04-20T15:01:25.455Z,9.00
2023-04-20T15:03:53.750Z,7.80
2023-04-20T15:06:22.043Z,8.17
2023-04-20T15:08:50.404Z,7.40
2023-04-20T15:11:18.466Z,7.03
2023-04-20T15:13:47.874Z,7.37
2023-04-20T15:16:16.094Z,7.63
2023-04-20T15:18:44.170Z,8.40
2023-04-20T15:21:12.747Z,7.00
2023-04-20T15:23:40.813Z,8.40
2023-04-20T15:26:10.051Z,7.73
2023-04-20T15:28:38.131Z,7.30
2023-04-20T15:31:08.880Z,7.20
2023-04-20T15:33:37.118Z,6.40
2023-04-20T15:36:05.483Z,7.80
2023-04-20T15:38:33.573Z,6.90
2023-04-20T15:41:01.646Z,7.70
2023-04-20T15:43:29.725Z,7.50
2023-04-20T15:45:57.876Z,6.87
2023-04-20T15:48:28.219Z,7.80
2023-04-20T15:50:56.365Z,7.50
2023-04-20T15:53:25.214Z,8.50
2023-04-20T15:55:53.283Z,8.47
2023-04-20T15:58:21.406Z,7.47
2023-04-20T16:00:49.552Z,7.20
2023-04-20T16:03:17.722Z,6.67
2023-04-20T16:05:47.277Z,7.70
2023-04-20T16:08:15.343Z,7.73
2023-04-20T16:10:43.373Z,7.03
2023-04-20T16:13:11.892Z,7.70
2023-04-20T16:15:40.290Z,6.97
2023-04-20T16:18:08.409Z,7.10
2023-04-20T16:20:36.525Z,8.03
2023-04-20T16:23:05.992Z,8.80
2023-04-20T16:25:34.441Z,9.33
2023-04-20T16:28:02.526Z,10.10
2023-04-20T16:30:30.580Z,9.50
2023-04-20T16:32:59.772Z,8.97
2023-04-20T16:35:28.159Z,11.17
2023-04-20T16:37:56.919Z,11.87
2023-04-20T16:40:26.665Z,9.40
2023-04-20T16:42:54.894Z,11.00
2023-04-20T16:45:22.945Z,9.97
2023-04-20T16:47:51.442Z,10.13
2023-04-20T16:50:20.497Z,10.70
2023-04-20T16:52:48.847Z,10.50
2023-04-20T16:55:16.992Z,10.10
2023-04-20T16:57:46.440Z,10.13
2023-04-20T17:00:15.748Z,10.40
2023-04-20T17:02:44.020Z,9.63
2023-04-20T17:05:13.169Z,10.53
2023-04-20T17:07:41.276Z,11.43
2023-04-20T17:10:09.853Z,11.87
2023-04-20T17:12:39.765Z,11.60
2023-04-20T17:15:11.699Z,11.23
2023-04-20T17:17:39.792Z,12.43
2023-04-20T17:20:09.646Z,11.80
2023-04-20T17:22:37.739Z,13.43
2023-04-20T17:25:07.577Z,14.17
2023-04-20T17:27:36.154Z,16.23
2023-04-20T17:30:04.616Z,15.83
2023-04-20T17:32:34.066Z,18.07
2023-04-20T17:35:02.164Z,16.20
2023-04-20T17:37:30.231Z,17.27
2023-04-20T17:39:58.320Z,18.47
2023-04-20T17:42:26.431Z,18.37
2023-04-20T17:44:54.469Z,17.80
2023-04-20T17:47:22.561Z,17.50
2023-04-20T17:49:52.057Z,18.70
2023-04-20T17:52:22.213Z,17.40
2023-04-20T17:54:50.244Z,18.00
2023-04-20T17:57:18.289Z,17.30
2023-04-20T17:59:46.402Z,18.90
2023-04-20T18:02:14.699Z,18.57
2023-04-20T18:04:43.068Z,19.60
2023-04-20T18:07:13.143Z,19.87
2023-04-20T18:09:41.351Z,21.40
2023-04-20T18:12:10.765Z,18.97
2023-04-20T18:14:39.001Z,20.50
2023-04-20T18:17:07.189Z,18.73
2023-04-20T18:19:35.548Z,18.87
2023-04-20T18:22:04.098Z,21.43
2023-04-20T18:24:33.517Z,22.20
2023-04-20T18:27:02.021Z,22.97
2023-04-20T18:29:30.061Z,20.90
2023-04-20T18:32:01.177Z,21.67
2023-04-20T18:34:31.055Z,20.17
2023-04-20T18:36:59.512Z,20.50
2023-04-20T18:39:27.724Z,21.43
2023-04-20T18:41:57.185Z,20.93
2023-04-20T18:44:25.616Z,21.70
2023-04-20T18:46:53.793Z,18.30
2023-04-20T18:49:21.888Z,20.10
2023-04-20T18:51:49.960Z,17.10
2023-04-20T18:54:18.403Z,16.23
2023-04-20T18:56:46.830Z,15.73
2023-04-20T18:59:16.270Z,13.30
2023-04-20T19:01:44.341Z,12.60
2023-04-20T19:04:12.546Z,12.57
2023-04-20T19:06:40.674Z,12.70
2023-04-20T19:09:09.131Z,11.63
2023-04-20T19:11:37.253Z,10.60
2023-04-20T19:14:05.367Z,10.00
2023-04-20T19:16:35.804Z,10.50
2023-04-20T19:19:04.202Z,10.07
2023-04-20T19:21:33.155Z,10.00
2023-04-20T19:24:01.363Z,9.50
2023-04-20T19:26:30.283Z,9.90
2023-04-20T19:28:59.760Z,11.97
2023-04-20T19:31:32.254Z,9.60
2023-04-20T19:34:01.819Z,9.67
2023-04-20T19:36:32.267Z,7.80
2023-04-20T19:39:00.468Z,8.20
2023-04-20T19:41:28.534Z,9.60
2023-04-20T19:43:56.693Z,9.73
2023-04-20T19:46:24.761Z,8.00
2023-04-20T19:48:52.850Z,7.30
2023-04-20T19:51:25.217Z,7.53
2023-04-20T19:53:53.428Z,6.60
2023-04-20T19:56:21.685Z,7.30
2023-04-20T19:58:49.734Z,7.97
2023-04-20T20:01:18.076Z,6.97
2023-04-20T20:03:46.366Z,7.80
2023-04-20T20:06:14.579Z,7.77
2023-04-20T20:08:44.036Z,8.80
2023-04-20T20:11:12.175Z,9.07
2023-04-20T20:13:40.257Z,8.20
2023-04-20T20:16:10.155Z,8.33
2023-04-20T20:18:38.283Z,9.57
2023-04-20T20:21:06.785Z,9.90
2023-04-20T20:23:34.852Z,11.07
2023-04-20T20:26:04.363Z,10.50
2023-04-20T20:28:32.436Z,9.70
2023-04-20T20:31:00.535Z,11.13
2023-04-20T20:33:28.634Z,10.03
2023-04-20T20:35:56.681Z,10.70
2023-04-20T20:38:24.751Z,12.30
2023-04-20T20:40:53.508Z,12.03
2023-04-20T20:43:23.162Z,12.20
2023-04-20T20:45:52.201Z,11.80
2023-04-20T20:48:20.241Z,11.83
2023-04-20T20:50:48.440Z,12.40
2023-04-20T20:53:17.610Z,11.60
2023-04-20T20:55:45.665Z,13.00
2023-04-20T20:58:13.687Z,12.93
2023-04-20T21:00:43.200Z,14.20
2023-04-20T21:03:11.412Z,15.57
2023-04-20T21:05:39.598Z,15.93
2023-04-20T21:08:09.888Z,16.47
2023-04-20T21:10:37.943Z,18.47
2023-04-20T21:13:06.180Z,16.20
2023-04-20T21:15:34.592Z,19.57
2023-04-20T21:18:04.161Z,18.30
2023-04-20T21:20:32.272Z,22.97
2023-04-20T21:23:00.557Z,20.27
2023-04-20T21:25:28.691Z,22.70
2023-04-20T21:27:56.749Z,23.30
2023-04-20T21:30:24.796Z,18.63
2023-04-20T21:32:52.871Z,21.17
2023-04-20T21:35:22.543Z,21.73
2023-04-20T21:37:50.635Z,22.87
2023-04-20T21:40:18.926Z,21.57
2023-04-20T21:42:46.970Z,21.77
2023-04-20T21:45:15.178Z,22.70
2023-04-20T21:47:43.291Z,22.70
2023-04-20T21:50:12.210Z,22.77
2023-04-20T21:52:41.754Z,22.80
2023-04-20T21:55:10.602Z,23.00
2023-04-20T21:57:38.672Z,23.70
2023-04-20T22:00:08.802Z,22.03
2023-04-20T22:02:36.932Z,21.73
2023-04-20T22:05:05.474Z,23.73
2023-04-20T22:07:33.575Z,21.40
2023-04-20T22:10:03.173Z,22.37
2023-04-20T22:12:39.348Z,21.27
2023-04-20T22:15:10.940Z,21.60
2023-04-20T22:17:39.286Z,20.63
2023-04-20T22:20:09.973Z,20.90
2023-04-20T22:22:39.270Z,19.70
2023-04-20T22:25:10.269Z,21.03
2023-04-20T22:27:38.879Z,21.30
2023-04-20T22:30:09.500Z,21.03
2023-04-20T22:32:38.440Z,19.53
2023-04-20T22:35:07.761Z,21.23
2023-04-20T22:37:36.129Z,20.53
2023-04-20T22:40:05.986Z,19.90
2023-04-20T22:42:36.032Z,20.37
2023-04-20T22:45:05.077Z,20.40
2023-04-20T22:47:33.490Z,20.40
2023-04-20T22:50:01.820Z,19.63
2023-04-20T22:52:29.873Z,21.57
2023-04-20T22:54:57.954Z,19.47
2023-04-20T22:57:26.001Z,19.77
2023-04-20T22:59:55.442Z,20.80
2023-04-20T23:02:23.698Z,17.80
2023-04-20T23:04:51.870Z,20.90
2023-04-20T23:07:21.213Z,19.67
2023-04-20T23:09:49.304Z,20.37
2023-04-20T23:12:17.524Z,20.20
2023-04-20T23:14:45.613Z,19.20
2023-04-20T23:17:15.041Z,20.07
2023-04-20T23:19:43.192Z,19.87
2023-04-20T23:22:11.226Z,17.23
2023-04-20T23:24:39.401Z,19.80
2023-04-20T23:27:07.479Z,19.87
2023-04-20T23:29:35.932Z,18.10
2023-04-20T23:32:04.160Z,20.23
2023-04-20T23:34:33.745Z,18.90
2023-04-20T23:37:01.807Z,20.00
2023-04-20T23:39:29.908Z,19.67
2023-04-20T23:41:58.066Z,19.77
2023-04-20T23:44:26.231Z,16.70
2023-04-20T23:46:54.255Z,17.57
2023-04-20T23:49:22.355Z,20.63
2023-04-20T23:51:51.827Z,20.00
2023-04-20T23:54:19.868Z,18.47
2023-04-20T23:56:47.944Z,20.27
2023-04-20T23:59:16.236Z,17.27
